createdAt,value
2018-05-04T00:00:02.036Z,24.40
2018-05-04T00:02:29.573Z,22.93
2018-05-04T00:04:57.084Z,24.13
2018-05-04T00:07:24.630Z,24.23
2018-05-04T00:09:52.142Z,24.17
2018-05-04T00:12:19.710Z,23.63
2018-05-04T00:14:47.218Z,23.97
2018-05-04T00:17:14.764Z,26.70
2018-05-04T00:19:43.064Z,24.07
2018-05-04T00:22:10.611Z,22.97
2018-05-04T00:24:38.127Z,26.60
2018-05-04T00:27:05.673Z,25.13
2018-05-04T00:29:33.183Z,24.83
2018-05-04T00:32:00.752Z,25.27
2018-05-04T00:34:28.267Z,25.00
2018-05-04T00:36:55.783Z,24.87
2018-05-04T00:39:23.313Z,24.80
2018-05-04T00:41:51.587Z,25.43
2018-05-04T00:44:19.897Z,26.23
2018-05-04T00:46:47.399Z,25.83
2018-05-04T00:49:14.947Z,25.17
2018-05-04T00:51:42.463Z,26.00
2018-05-04T00:54:24.732Z,26.87
2018-05-04T00:56:52.239Z,26.83
2018-05-04T00:59:19.793Z,27.53
2018-05-04T01:01:47.320Z,27.17
2018-05-04T01:04:14.889Z,26.27
2018-05-04T01:06:42.408Z,26.93
2018-05-04T01:09:09.956Z,28.00
2018-05-04T01:11:37.467Z,27.77
2018-05-04T01:14:05.016Z,29.07
2018-05-04T01:16:32.516Z,27.57
2018-05-04T01:19:00.080Z,29.03
2018-05-04T01:21:27.599Z,28.30
2018-05-04T01:23:55.117Z,28.87
2018-05-04T01:26:22.694Z,29.13
2018-05-04T01:28:50.214Z,29.40
2018-05-04T01:31:17.760Z,29.27
2018-05-04T01:33:45.276Z,28.90
2018-05-04T01:36:12.832Z,29.00
2018-05-04T01:38:40.352Z,29.27
2018-05-04T01:41:07.902Z,28.67
2018-05-04T01:43:35.429Z,28.73
2018-05-04T01:46:02.988Z,29.53
2018-05-04T01:48:30.512Z,31.20
2018-05-04T01:50:58.062Z,28.83
2018-05-04T01:53:25.580Z,29.27
2018-05-04T01:55:53.123Z,28.87
2018-05-04T01:58:20.666Z,27.23
2018-05-04T02:00:48.177Z,26.83
2018-05-04T02:03:15.724Z,27.20
2018-05-04T02:05:43.240Z,29.40
2018-05-04T02:08:10.775Z,26.70
2018-05-04T02:10:38.286Z,26.13
2018-05-04T02:13:06.596Z,25.70
2018-05-04T02:15:34.133Z,25.93
2018-05-04T02:18:01.678Z,25.63
2018-05-04T02:20:29.952Z,24.80
2018-05-04T02:22:58.283Z,24.60
2018-05-04T02:25:25.800Z,25.97
2018-05-04T02:27:53.342Z,24.33
2018-05-04T02:30:21.632Z,26.87
2018-05-04T02:32:49.189Z,25.70
2018-05-04T02:35:16.726Z,24.70
2018-05-04T02:37:44.304Z,24.17
2018-05-04T02:40:11.848Z,26.23
2018-05-04T02:42:39.386Z,24.90
2018-05-04T02:45:06.938Z,24.70
2018-05-04T02:47:34.460Z,27.40
2018-05-04T02:50:02.028Z,26.03
2018-05-04T02:52:29.548Z,26.17
2018-05-04T02:54:57.100Z,26.03
2018-05-04T02:57:24.620Z,26.17
2018-05-04T02:59:52.205Z,28.37
2018-05-04T03:02:19.696Z,26.23
2018-05-04T03:04:47.253Z,28.30
2018-05-04T03:07:15.546Z,26.57
2018-05-04T03:09:43.088Z,26.67
2018-05-04T03:12:10.606Z,26.93
2018-05-04T03:14:38.157Z,26.77
2018-05-04T03:17:05.693Z,25.70
2018-05-04T03:19:33.210Z,27.50
2018-05-04T03:22:00.801Z,26.07
2018-05-04T03:24:28.290Z,27.37
2018-05-04T03:26:55.843Z,29.20
2018-05-04T03:29:23.351Z,27.43
2018-05-04T03:31:50.898Z,26.67
2018-05-04T03:34:18.402Z,27.27
2018-05-04T03:36:45.955Z,27.60
2018-05-04T03:39:13.456Z,26.87
2018-05-04T03:41:41.008Z,26.37
2018-05-04T03:44:08.529Z,27.37
2018-05-04T03:46:36.936Z,27.23
2018-05-04T03:49:04.464Z,27.07
2018-05-04T03:51:32.017Z,26.67
2018-05-04T03:54:00.313Z,26.27
2018-05-04T03:56:27.864Z,27.43
2018-05-04T03:59:07.053Z,26.73
2018-05-04T04:01:46.436Z,26.93
2018-05-04T04:04:14.303Z,26.63
2018-05-04T04:06:41.843Z,26.67
2018-05-04T04:09:09.388Z,27.27
2018-05-04T04:11:36.914Z,28.13
2018-05-04T04:14:04.456Z,27.50
2018-05-04T04:16:31.976Z,28.37
2018-05-04T04:18:59.512Z,28.43
2018-05-04T04:21:27.145Z,27.80
2018-05-04T04:23:54.688Z,26.13
2018-05-04T04:26:22.198Z,27.77
2018-05-04T04:28:50.543Z,27.70
2018-05-04T04:31:18.070Z,27.30
2018-05-04T04:33:45.630Z,27.33
2018-05-04T04:36:13.144Z,28.57
2018-05-04T04:38:40.690Z,28.50
2018-05-04T04:41:08.198Z,28.00
2018-05-04T04:43:36.502Z,28.23
2018-05-04T04:46:04.024Z,28.27
2018-05-04T04:48:31.578Z,29.03
2018-05-04T04:50:59.098Z,28.17
2018-05-04T04:53:26.590Z,29.47
2018-05-04T04:55:54.150Z,28.57
2018-05-04T04:58:21.660Z,28.97
2018-05-04T05:00:49.190Z,28.63
2018-05-04T05:03:16.702Z,28.03
2018-05-04T05:05:44.998Z,28.77
2018-05-04T05:08:12.518Z,28.20
2018-05-04T05:10:40.763Z,28.87
2018-05-04T05:13:09.038Z,29.37
2018-05-04T05:15:36.578Z,29.47
2018-05-04T05:18:04.087Z,29.37
2018-05-04T05:20:31.626Z,29.50
2018-05-04T05:22:59.137Z,34.83
2018-05-04T05:25:26.696Z,28.83
2018-05-04T05:27:54.974Z,29.10
2018-05-04T05:30:22.517Z,29.33
2018-05-04T05:32:50.790Z,28.60
2018-05-04T05:35:18.362Z,29.30
2018-05-04T05:37:45.879Z,29.80
2018-05-04T05:40:13.910Z,30.20
2018-05-04T05:42:41.458Z,146.97
2018-05-04T05:45:09.751Z,111.93
2018-05-04T05:47:37.303Z,32.93
2018-05-04T05:50:04.806Z,29.57
2018-05-04T05:52:32.348Z,28.43
2018-05-04T05:54:59.863Z,28.53
2018-05-04T05:57:27.402Z,28.33
2018-05-04T05:59:54.910Z,28.83
2018-05-04T06:02:22.448Z,29.60
2018-05-04T06:04:49.957Z,29.27
2018-05-04T06:07:17.522Z,29.30
2018-05-04T06:09:45.033Z,28.07
2018-05-04T06:12:12.716Z,28.57
2018-05-04T06:14:40.268Z,27.83
2018-05-04T06:17:07.861Z,26.87
2018-05-04T06:19:35.480Z,27.20
2018-05-04T06:22:03.061Z,27.73
2018-05-04T06:24:30.643Z,28.53
2018-05-04T06:26:58.214Z,27.67
2018-05-04T06:29:25.816Z,28.47
2018-05-04T06:31:53.380Z,28.03
2018-05-04T06:34:21.450Z,27.47
2018-05-04T06:36:49.032Z,27.73
2018-05-04T06:39:17.386Z,27.20
2018-05-04T06:41:44.924Z,28.73
2018-05-04T06:44:12.499Z,26.97
2018-05-04T06:46:40.032Z,28.47
2018-05-04T06:49:07.636Z,28.10
2018-05-04T06:51:35.168Z,26.47
2018-05-04T06:54:02.688Z,27.20
2018-05-04T06:56:30.298Z,27.30
2018-05-04T06:58:57.827Z,27.47
2018-05-04T07:01:25.414Z,27.33
2018-05-04T07:03:52.948Z,27.03
2018-05-04T07:06:20.577Z,25.50
2018-05-04T07:08:48.168Z,27.10
2018-05-04T07:11:16.259Z,24.57
2018-05-04T07:13:43.797Z,25.63
2018-05-04T07:16:11.379Z,26.27
2018-05-04T07:18:38.958Z,26.93
2018-05-04T07:21:06.571Z,27.40
2018-05-04T07:23:34.162Z,26.37
2018-05-04T07:26:01.791Z,25.27
2018-05-04T07:28:29.336Z,25.23
2018-05-04T07:30:56.937Z,24.77
2018-05-04T07:33:24.498Z,26.00
2018-05-04T07:35:52.116Z,25.37
2018-05-04T07:38:19.712Z,24.77
2018-05-04T07:40:47.281Z,26.67
2018-05-04T07:43:14.946Z,25.07
2018-05-04T07:45:42.498Z,26.73
2018-05-04T07:48:10.124Z,25.43
2018-05-04T07:50:38.430Z,26.57
2018-05-04T07:53:06.044Z,25.20
2018-05-04T07:55:33.628Z,25.13
2018-05-04T07:58:01.235Z,24.33
2018-05-04T08:00:28.773Z,24.97
2018-05-04T08:02:56.384Z,25.17
2018-05-04T08:05:23.953Z,25.10
2018-05-04T08:07:52.353Z,24.40
2018-05-04T08:10:19.917Z,24.47
2018-05-04T08:12:47.526Z,22.90
2018-05-04T08:15:15.118Z,26.07
2018-05-04T08:17:43.760Z,24.83
2018-05-04T08:20:11.450Z,24.03
2018-05-04T08:22:38.976Z,24.50
2018-05-04T08:25:06.573Z,24.67
2018-05-04T08:27:34.158Z,24.83
2018-05-04T08:30:02.012Z,22.77
2018-05-04T08:32:30.349Z,25.10
2018-05-04T08:34:58.754Z,23.77
2018-05-04T08:37:27.044Z,24.43
2018-05-04T08:39:54.661Z,23.77
2018-05-04T08:42:22.223Z,26.20
2018-05-04T08:44:49.835Z,23.23
2018-05-04T08:47:17.368Z,24.40
2018-05-04T08:49:44.963Z,23.57
2018-05-04T08:52:12.496Z,25.43
2018-05-04T08:54:40.842Z,22.80
2018-05-04T08:57:08.490Z,22.93
2018-05-04T08:59:36.038Z,29.00
2018-05-04T09:02:03.579Z,23.30
2018-05-04T09:04:31.192Z,24.43
2018-05-04T09:06:58.740Z,24.77
2018-05-04T09:09:26.288Z,24.90
2018-05-04T09:11:53.875Z,22.77
2018-05-04T09:14:22.199Z,22.13
2018-05-04T09:16:49.945Z,23.27
2018-05-04T09:19:17.515Z,23.37
2018-05-04T09:21:45.108Z,23.27
2018-05-04T09:24:12.630Z,23.43
2018-05-04T09:26:40.962Z,23.43
2018-05-04T09:29:08.506Z,23.00
2018-05-04T09:31:36.139Z,22.00
2018-05-04T09:34:03.728Z,22.97
2018-05-04T09:36:31.348Z,21.47
2018-05-04T09:38:59.044Z,22.77
2018-05-04T09:41:26.638Z,22.63
2018-05-04T09:43:54.989Z,22.77
2018-05-04T09:46:22.620Z,21.13
2018-05-04T09:48:50.248Z,22.60
2018-05-04T09:51:17.820Z,22.03
2018-05-04T09:53:45.390Z,21.67
2018-05-04T09:56:13.708Z,22.10
2018-05-04T09:58:41.351Z,20.80
2018-05-04T10:01:08.895Z,23.40
2018-05-04T10:03:36.541Z,21.43
2018-05-04T10:06:04.084Z,21.40
2018-05-04T10:08:31.681Z,21.93
2018-05-04T10:11:00.009Z,20.77
2018-05-04T10:13:27.607Z,21.87
2018-05-04T10:15:55.188Z,21.30
2018-05-04T10:18:22.747Z,20.70
2018-05-04T10:20:50.331Z,19.43
2018-05-04T10:23:17.955Z,22.23
2018-05-04T10:25:46.294Z,21.47
2018-05-04T10:28:13.889Z,20.90
2018-05-04T10:30:42.434Z,21.73
2018-05-04T10:33:10.068Z,20.13
2018-05-04T10:35:38.006Z,19.40
2018-05-04T10:38:05.630Z,20.20
2018-05-04T10:40:33.181Z,20.80
2018-05-04T10:43:00.784Z,21.57
2018-05-04T10:45:28.361Z,21.30
2018-05-04T10:47:55.954Z,22.03
2018-05-04T10:50:23.534Z,21.53
2018-05-04T10:52:51.110Z,22.37
2018-05-04T10:55:18.793Z,20.97
2018-05-04T10:57:47.142Z,22.47
2018-05-04T11:00:14.825Z,24.83
2018-05-04T11:02:42.409Z,21.40
2018-05-04T11:05:10.031Z,22.37
2018-05-04T11:07:37.560Z,21.53
2018-05-04T11:10:05.124Z,21.30
2018-05-04T11:12:32.723Z,21.83
2018-05-04T11:15:00.348Z,20.77
2018-05-04T11:17:27.883Z,20.40
2018-05-04T11:19:55.520Z,20.90
2018-05-04T11:22:23.077Z,21.37
2018-05-04T11:24:50.653Z,22.03
2018-05-04T11:27:18.276Z,22.93
2018-05-04T11:29:45.824Z,21.57
2018-05-04T11:32:13.474Z,21.67
2018-05-04T11:34:41.040Z,21.90
2018-05-04T11:37:08.658Z,22.53
2018-05-04T11:39:36.222Z,21.40
2018-05-04T11:42:03.867Z,21.57
2018-05-04T11:44:31.419Z,21.27
2018-05-04T11:46:59.731Z,22.70
2018-05-04T11:49:27.273Z,21.00
2018-05-04T11:51:54.958Z,21.27
2018-05-04T11:54:22.649Z,21.73
2018-05-04T11:56:51.061Z,21.07
2018-05-04T11:59:18.588Z,20.87
2018-05-04T12:01:46.214Z,21.03
2018-05-04T12:04:13.818Z,20.73
2018-05-04T12:06:41.432Z,24.23
2018-05-04T12:09:09.767Z,20.07
2018-05-04T12:11:37.716Z,21.63
2018-05-04T12:14:05.248Z,21.50
2018-05-04T12:16:32.822Z,22.73
2018-05-04T12:19:00.428Z,23.77
2018-05-04T12:21:28.007Z,20.57
2018-05-04T12:23:55.597Z,22.27
2018-05-04T12:26:23.107Z,25.17
2018-05-04T12:28:50.674Z,22.07
2018-05-04T12:31:18.257Z,21.37
2018-05-04T12:33:45.892Z,21.33
2018-05-04T12:36:14.281Z,23.03
2018-05-04T12:38:41.943Z,23.43
2018-05-04T12:41:09.536Z,22.40
2018-05-04T12:43:37.125Z,22.40
2018-05-04T12:46:05.435Z,23.23
2018-05-04T12:48:32.993Z,23.67
2018-05-04T12:51:00.547Z,22.60
2018-05-04T12:53:29.041Z,23.40
2018-05-04T12:55:57.344Z,24.57
2018-05-04T12:58:24.975Z,22.93
2018-05-04T13:00:52.528Z,22.63
2018-05-04T13:03:20.072Z,22.03
2018-05-04T13:05:47.668Z,23.17
2018-05-04T13:08:15.219Z,24.10
2018-05-04T13:10:43.599Z,24.10
2018-05-04T13:13:11.111Z,24.20
2018-05-04T13:15:38.685Z,23.50
2018-05-04T13:18:06.287Z,26.47
2018-05-04T13:20:33.845Z,23.53
2018-05-04T13:23:01.420Z,25.60
2018-05-04T13:25:29.078Z,26.17
2018-05-04T13:27:56.617Z,25.27
2018-05-04T13:30:24.221Z,25.27
2018-05-04T13:32:51.793Z,23.60
2018-05-04T13:35:19.396Z,24.33
2018-05-04T13:37:46.957Z,24.53
2018-05-04T13:40:14.614Z,25.60
2018-05-04T13:42:42.303Z,25.97
2018-05-04T13:45:10.038Z,24.83
2018-05-04T13:47:37.617Z,25.80
2018-05-04T13:50:05.172Z,24.90
2018-05-04T13:52:32.809Z,25.07
2018-05-04T13:55:01.134Z,26.07
2018-05-04T13:57:28.711Z,26.37
2018-05-04T13:59:56.230Z,24.90
2018-05-04T14:02:23.907Z,26.77
2018-05-04T14:04:51.545Z,25.73
2018-05-04T14:07:19.151Z,26.43
2018-05-04T14:09:46.727Z,24.63
2018-05-04T14:12:14.382Z,28.50
2018-05-04T14:14:41.935Z,24.30
2018-05-04T14:17:09.563Z,24.30
2018-05-04T14:19:37.159Z,24.80
2018-05-04T14:22:04.743Z,25.23
2018-05-04T14:24:32.340Z,26.17
2018-05-04T14:26:59.936Z,26.13
2018-05-04T14:29:27.495Z,26.27
2018-05-04T14:31:55.107Z,25.30
2018-05-04T14:34:23.463Z,27.13
2018-05-04T14:36:51.119Z,26.57
2018-05-04T14:39:18.779Z,23.10
2018-05-04T14:41:46.341Z,27.73
2018-05-04T14:44:13.939Z,23.40
2018-05-04T14:46:41.524Z,27.23
2018-05-04T14:49:09.167Z,25.40
2018-05-04T14:51:36.733Z,27.07
2018-05-04T14:54:04.381Z,24.83
2018-05-04T14:56:31.958Z,25.53
2018-05-04T14:58:59.534Z,24.77
2018-05-04T15:01:27.148Z,27.10
2018-05-04T15:03:54.813Z,25.00
2018-05-04T15:06:22.368Z,25.90
2018-05-04T15:08:50.832Z,24.90
2018-05-04T15:11:18.404Z,24.17
2018-05-04T15:13:46.797Z,25.07
2018-05-04T15:16:14.369Z,24.73
2018-05-04T15:18:42.043Z,24.63
2018-05-04T15:21:09.747Z,24.20
2018-05-04T15:23:37.356Z,26.23
2018-05-04T15:26:04.951Z,26.57
2018-05-04T15:28:32.523Z,24.77
2018-05-04T15:31:00.094Z,24.37
2018-05-04T15:33:27.635Z,26.90
2018-05-04T15:35:55.984Z,28.73
2018-05-04T15:38:23.538Z,27.67
2018-05-04T15:40:51.176Z,32.07
2018-05-04T15:43:18.779Z,26.60
2018-05-04T15:45:46.404Z,25.73
2018-05-04T15:48:20.326Z,26.87
2018-05-04T15:50:53.583Z,25.70
2018-05-04T15:53:21.127Z,26.00
2018-05-04T15:55:48.720Z,26.83
2018-05-04T15:58:17.068Z,26.53
2018-05-04T16:00:44.758Z,26.87
2018-05-04T16:03:12.313Z,26.83
2018-05-04T16:05:39.901Z,26.00
2018-05-04T16:08:07.506Z,26.33
2018-05-04T16:10:35.091Z,24.60
2018-05-04T16:13:03.469Z,25.43
2018-05-04T16:15:31.003Z,23.50
2018-05-04T16:17:58.620Z,22.93
2018-05-04T16:20:26.257Z,24.73
2018-05-04T16:22:53.811Z,23.43
2018-05-04T16:25:21.361Z,22.60
2018-05-04T16:27:48.979Z,24.53
2018-05-04T16:30:16.549Z,22.77
2018-05-04T16:32:44.179Z,22.93
2018-05-04T16:35:11.736Z,23.60
2018-05-04T16:37:39.344Z,24.33
2018-05-04T16:40:06.900Z,22.30
2018-05-04T16:42:34.491Z,22.77
2018-05-04T16:45:02.149Z,21.57
2018-05-04T16:47:29.707Z,22.77
2018-05-04T16:49:57.315Z,21.63
2018-05-04T16:52:24.931Z,23.00
2018-05-04T16:54:52.514Z,22.07
2018-05-04T16:57:20.801Z,23.70
2018-05-04T16:59:48.451Z,22.97
2018-05-04T17:02:16.003Z,21.67
2018-05-04T17:04:43.629Z,23.23
2018-05-04T17:07:11.179Z,24.40
2018-05-04T17:09:38.757Z,25.77
2018-05-04T17:12:06.311Z,26.13
2018-05-04T17:14:33.911Z,25.80
2018-05-04T17:17:02.257Z,23.43
2018-05-04T17:19:29.848Z,25.10
2018-05-04T17:21:58.272Z,20.83
2018-05-04T17:24:25.833Z,21.63
2018-05-04T17:26:53.389Z,18.33
2018-05-04T17:29:20.977Z,17.33
2018-05-04T17:31:48.630Z,15.83
2018-05-04T17:34:16.210Z,14.13
2018-05-04T17:36:44.583Z,15.83
2018-05-04T17:39:12.222Z,16.90
2018-05-04T17:41:39.765Z,14.77
2018-05-04T17:44:07.290Z,15.30
2018-05-04T17:46:34.865Z,15.80
2018-05-04T17:49:02.819Z,14.30
2018-05-04T17:51:30.447Z,11.20
2018-05-04T17:53:57.977Z,13.00
2018-05-04T17:56:25.595Z,16.83
2018-05-04T17:58:53.177Z,13.17
2018-05-04T18:01:20.762Z,18.43
2018-05-04T18:03:48.337Z,14.43
2018-05-04T18:06:15.918Z,17.07
2018-05-04T18:08:43.479Z,16.70
2018-05-04T18:11:11.063Z,16.87
2018-05-04T18:13:38.703Z,16.43
2018-05-04T18:16:06.289Z,19.30
2018-05-04T18:18:34.619Z,18.13
2018-05-04T18:21:02.270Z,18.97
2018-05-04T18:23:29.799Z,22.60
2018-05-04T18:25:57.429Z,20.20
2018-05-04T18:28:25.021Z,20.70
2018-05-04T18:30:52.535Z,20.87
2018-05-04T18:33:20.089Z,21.23
2018-05-04T18:35:47.643Z,21.97
2018-05-04T18:38:15.260Z,23.07
2018-05-04T18:40:42.799Z,22.93
2018-05-04T18:43:10.371Z,22.70
2018-05-04T18:45:37.933Z,23.93
2018-05-04T18:48:05.505Z,22.27
2018-05-04T18:50:33.053Z,23.43
2018-05-04T18:53:01.383Z,25.33
2018-05-04T18:55:28.976Z,26.17
2018-05-04T18:57:56.542Z,25.57
2018-05-04T19:00:24.851Z,27.20
2018-05-04T19:02:58.027Z,26.67
2018-05-04T19:05:25.639Z,27.23
2018-05-04T19:07:53.200Z,34.67
2018-05-04T19:10:20.785Z,29.13
2018-05-04T19:12:49.175Z,29.00
2018-05-04T19:15:16.793Z,30.53
2018-05-04T19:17:46.164Z,29.97
2018-05-04T19:20:13.723Z,30.70
2018-05-04T19:22:41.278Z,30.60
2018-05-04T19:25:08.879Z,31.17
2018-05-04T19:27:36.426Z,30.60
2018-05-04T19:30:04.108Z,30.60
2018-05-04T19:32:31.670Z,31.07
2018-05-04T19:34:59.240Z,37.30
2018-05-04T19:37:26.849Z,33.13
2018-05-04T19:39:54.531Z,32.53
2018-05-04T19:42:22.890Z,31.00
2018-05-04T19:44:50.478Z,31.17
2018-05-04T19:47:18.790Z,32.30
2018-05-04T19:49:46.369Z,32.90
2018-05-04T19:52:13.902Z,31.83
2018-05-04T19:54:41.491Z,33.43
2018-05-04T19:57:09.901Z,33.70
2018-05-04T19:59:37.479Z,31.40
2018-05-04T20:02:05.753Z,32.37
2018-05-04T20:04:33.345Z,32.47
2018-05-04T20:07:01.027Z,32.57
2018-05-04T20:09:28.544Z,32.00
2018-05-04T20:11:56.168Z,32.03
2018-05-04T20:14:23.716Z,33.87
2018-05-04T20:16:51.273Z,34.03
2018-05-04T20:19:18.821Z,35.43
2018-05-04T20:21:47.150Z,35.37
2018-05-04T20:24:14.701Z,35.83
2018-05-04T20:26:42.352Z,36.70
2018-05-04T20:29:09.895Z,38.10
2018-05-04T20:31:37.455Z,37.50
2018-05-04T20:34:05.036Z,36.13
2018-05-04T20:36:32.668Z,36.87
2018-05-04T20:39:00.328Z,36.93
2018-05-04T20:41:28.683Z,36.73
2018-05-04T20:43:56.250Z,37.10
2018-05-04T20:46:24.635Z,39.10
2018-05-04T20:48:52.181Z,36.43
2018-05-04T20:51:19.791Z,37.03
2018-05-04T20:53:47.348Z,36.73
2018-05-04T20:56:15.015Z,38.33
2018-05-04T20:58:42.606Z,36.27
2018-05-04T21:01:10.255Z,38.93
2018-05-04T21:03:37.837Z,37.63
2018-05-04T21:06:05.388Z,36.30
2018-05-04T21:08:32.987Z,36.17
2018-05-04T21:11:00.577Z,40.67
2018-05-04T21:13:28.172Z,38.63
2018-05-04T21:15:55.718Z,38.13
2018-05-04T21:18:23.283Z,37.23
2018-05-04T21:20:50.857Z,37.03
2018-05-04T21:23:18.471Z,36.30
2018-05-04T21:25:46.051Z,36.23
2018-05-04T21:28:13.652Z,37.87
2018-05-04T21:30:41.295Z,37.50
2018-05-04T21:33:08.935Z,37.13
2018-05-04T21:35:36.512Z,37.53
2018-05-04T21:38:04.103Z,37.37
2018-05-04T21:40:31.718Z,36.30
2018-05-04T21:42:59.247Z,39.17
2018-05-04T21:45:26.851Z,37.30
2018-05-04T21:47:54.412Z,39.60
2018-05-04T21:50:22.031Z,40.20
2018-05-04T21:52:49.561Z,36.53
2018-05-04T21:55:17.895Z,37.03
2018-05-04T21:57:45.449Z,37.40
2018-05-04T22:00:13.019Z,37.50
2018-05-04T22:02:40.567Z,35.33
2018-05-04T22:05:08.653Z,36.40
2018-05-04T22:07:36.195Z,36.67
2018-05-04T22:10:03.763Z,36.10
2018-05-04T22:12:32.097Z,39.80
2018-05-04T22:14:59.678Z,36.67
2018-05-04T22:17:27.242Z,37.13
2018-05-04T22:19:54.847Z,38.70
2018-05-04T22:22:22.454Z,36.10
2018-05-04T22:24:50.076Z,36.60
2018-05-04T22:27:17.649Z,36.90
2018-05-04T22:29:45.995Z,36.20
2018-05-04T22:32:13.521Z,35.90
2018-05-04T22:34:41.063Z,35.33
2018-05-04T22:37:08.744Z,36.63
2018-05-04T22:39:36.279Z,35.23
2018-05-04T22:42:03.898Z,34.03
2018-05-04T22:44:31.472Z,34.87
2018-05-04T22:46:59.164Z,34.70
2018-05-04T22:49:26.750Z,35.03
2018-05-04T22:51:54.392Z,34.17
2018-05-04T22:54:22.017Z,37.53
2018-05-04T22:56:49.622Z,35.27
2018-05-04T22:59:17.206Z,34.37
2018-05-04T23:01:44.820Z,33.73
2018-05-04T23:04:12.386Z,34.70
2018-05-04T23:06:39.970Z,35.53
2018-05-04T23:09:07.552Z,33.47
2018-05-04T23:11:35.165Z,35.73
2018-05-04T23:14:03.522Z,34.77
2018-05-04T23:16:31.125Z,39.90
2018-05-04T23:18:58.703Z,36.47
2018-05-04T23:21:26.287Z,34.97
2018-05-04T23:23:53.894Z,34.93
2018-05-04T23:26:21.433Z,35.37
2018-05-04T23:28:48.998Z,34.30
2018-05-04T23:31:16.546Z,35.43
2018-05-04T23:33:44.126Z,34.70
2018-05-04T23:36:11.826Z,34.40
2018-05-04T23:38:39.431Z,32.40
2018-05-04T23:41:07.783Z,33.73
2018-05-04T23:43:35.333Z,35.50
2018-05-04T23:46:02.849Z,35.13
2018-05-04T23:48:31.190Z,34.33
2018-05-04T23:50:58.727Z,35.80
2018-05-04T23:53:26.286Z,34.80
2018-05-04T23:55:53.843Z,33.03
2018-05-04T23:58:21.487Z,40.23
